Time;durP1;ratioP1;P1;durP2;ratioP2;P2;SDS_P1;SDS_P2;PMS_P1;PMS_P2;Temp;Humidity;BMP_temperature;BMP_pressure;BME280_temperature;BME280_humidity;BME280_pressure;Samples;Min_cycle;Max_cycle;Signal;HPM_P1;HPM_P2
2021/11/05 00:08:23;;;;;;;22.45;12.05;;;4.70;99.90;;;;;;20825768;28;20722;-81
2021/11/05 00:18:24;;;;;;;20.55;12.13;;;4.80;99.90;;;;;;20830787;28;20068;-80
2021/11/05 00:28:25;;;;;;;20.57;12.07;;;4.80;99.90;;;;;;20849169;28;20025;-81
2021/11/05 00:38:26;;;;;;;17.73;9.40;;;4.80;99.90;;;;;;20832266;28;20303;-81
2021/11/05 00:48:26;;;;;;;16.83;9.83;;;4.80;99.90;;;;;;20852454;28;20029;-80
2021/11/05 00:58:27;;;;;;;19.63;11.35;;;4.90;99.90;;;;;;20848028;28;20318;-79
2021/11/05 01:08:28;;;;;;;25.17;13.00;;;4.80;99.90;;;;;;20846573;28;20033;-81
2021/11/05 01:18:29;;;;;;;28.33;15.32;;;4.70;99.90;;;;;;20813508;28;20061;-81
2021/11/05 01:28:30;;;;;;;27.33;14.68;;;4.70;99.90;;;;;;20837299;28;20095;-82
2021/11/05 01:38:30;;;;;;;36.90;17.10;;;4.70;99.90;;;;;;20831649;28;20037;-83
2021/11/05 01:48:31;;;;;;;31.95;15.57;;;4.70;99.90;;;;;;20813537;28;20220;-81
2021/11/05 01:58:32;;;;;;;26.75;15.45;;;4.80;99.90;;;;;;20824553;28;20144;-81
2021/11/05 02:08:36;;;;;;;26.27;13.23;;;4.90;99.90;;;;;;20799775;28;20719;-82
2021/11/05 02:18:38;;;;;;;22.83;13.52;;;4.90;99.90;;;;;;20821892;28;20037;-80
2021/11/05 02:28:40;;;;;;;19.58;12.65;;;4.90;99.90;;;;;;20819365;28;20033;-83
2021/11/05 02:38:41;;;;;;;;;;;5.10;99.90;;;;;;20802922;28;20511;-81
2021/11/05 02:48:42;;;;;;;21.42;12.77;;;5.00;99.90;;;;;;20825549;28;19983;-82
2021/11/05 02:58:43;;;;;;;;;;;5.00;99.90;;;;;;20805045;28;20045;-81
2021/11/05 03:08:44;;;;;;;23.53;13.57;;;5.00;99.90;;;;;;20825184;28;19917;-81
2021/11/05 03:18:44;;;;;;;;;;;5.10;99.90;;;;;;20830330;28;20064;-82
2021/11/05 03:28:45;;;;;;;19.87;12.17;;;5.10;99.90;;;;;;20881322;28;19913;-81
2021/11/05 03:38:46;;;;;;;28.57;14.50;;;5.20;99.90;;;;;;20861034;28;20283;-81
2021/11/05 03:48:47;;;;;;;24.70;13.90;;;5.20;99.90;;;;;;20853800;28;20033;-80
2021/11/05 03:58:49;;;;;;;22.25;13.57;;;5.20;99.90;;;;;;20851445;28;20042;-80
2021/11/05 04:08:50;;;;;;;28.92;15.10;;;5.20;99.90;;;;;;20861949;28;20084;-81
2021/11/05 04:18:51;;;;;;;;;;;5.10;99.90;;;;;;20881353;28;20030;-83
2021/11/05 04:28:52;;;;;;;32.17;16.70;;;5.10;99.90;;;;;;20882500;28;19913;-80
2021/11/05 04:38:53;;;;;;;31.35;15.48;;;5.10;99.90;;;;;;20884698;28;20029;-82
2021/11/05 04:48:54;;;;;;;26.95;14.50;;;5.20;99.90;;;;;;20884666;28;20029;-80
2021/11/05 04:58:55;;;;;;;28.63;14.63;;;5.20;99.90;;;;;;20868793;28;20033;-81
2021/11/05 05:08:55;;;;;;;27.47;16.67;;;5.20;99.90;;;;;;20854568;28;20041;-82
2021/11/05 05:18:56;;;;;;;25.23;14.98;;;5.20;99.90;;;;;;20856669;28;20065;-81
2021/11/05 05:28:57;;;;;;;30.03;15.13;;;5.40;99.90;;;;;;20874626;28;20041;-79
2021/11/05 05:38:58;;;;;;;24.13;13.77;;;5.40;99.90;;;;;;20864044;28;20044;-81
2021/11/05 05:48:59;;;;;;;29.27;14.07;;;5.50;99.90;;;;;;20884392;28;20041;-80
2021/11/05 05:59:00;;;;;;;26.77;15.27;;;5.40;99.90;;;;;;20885540;28;20041;-81
2021/11/05 06:09:01;;;;;;;25.30;13.77;;;5.30;99.90;;;;;;20888037;28;20021;-80
2021/11/05 06:19:01;;;;;;;27.33;14.63;;;5.40;99.90;;;;;;20866492;28;20522;-81
2021/11/05 06:29:03;;;;;;;22.60;12.70;;;5.50;99.90;;;;;;20882328;28;20037;-80
2021/11/05 06:39:04;;;;;;;;;;;5.40;99.90;;;;;;20863472;28;20272;-80
2021/11/05 06:49:05;;;;;;;81.35;41.80;;;5.50;99.90;;;;;;20833939;28;19967;-82
2021/11/05 06:59:06;;;;;;;54.37;27.73;;;5.60;99.90;;;;;;20833364;28;20497;-81
2021/11/05 07:09:07;;;;;;;57.40;34.77;;;5.60;99.90;;;;;;20834245;28;20447;-82
2021/11/05 07:19:08;;;;;;;28.87;16.70;;;5.60;99.90;;;;;;20832816;28;20033;-83
2021/11/05 07:29:11;;;;;;;31.88;15.82;;;5.80;99.90;;;;;;20896099;28;20082;-83
2021/11/05 07:39:12;;;;;;;18.48;11.07;;;5.90;99.90;;;;;;20901769;28;20086;-81
2021/11/05 07:49:14;;;;;;;39.58;17.58;;;5.90;99.90;;;;;;20902088;28;20491;-81
2021/11/05 07:59:15;;;;;;;22.38;10.70;;;6.00;99.90;;;;;;20922847;28;20403;-82
2021/11/05 08:09:16;;;;;;;14.82;9.40;;;6.30;99.90;;;;;;20928671;28;20024;-81
2021/11/05 08:19:17;;;;;;;15.17;8.77;;;6.40;99.90;;;;;;20938823;28;20029;-82
2021/11/05 08:29:18;;;;;;;15.40;7.63;;;6.40;99.90;;;;;;20928377;28;20033;-82
2021/11/05 08:39:19;;;;;;;13.37;7.20;;;6.60;99.90;;;;;;20907884;28;20693;-80
2021/11/05 08:49:22;;;;;;;13.05;8.25;;;6.60;99.90;;;;;;20920938;28;20036;-79
2021/11/05 08:59:25;;;;;;;14.15;7.97;;;6.90;99.90;;;;;;20889978;28;20037;-81
2021/11/05 09:09:25;;;;;;;10.70;6.15;;;7.20;99.90;;;;;;20925894;28;20549;-83
2021/11/05 09:19:26;;;;;;;10.97;5.80;;;7.10;99.90;;;;;;20929250;28;20033;-83
2021/11/05 09:29:27;;;;;;;9.07;5.90;;;7.00;99.90;;;;;;20928352;28;20063;-83
2021/11/05 09:39:30;;;;;;;9.17;5.43;;;7.20;99.90;;;;;;20848647;28;20033;-80
2021/11/05 09:49:32;;;;;;;8.35;4.10;;;7.10;99.90;;;;;;20825459;28;20288;-80
2021/11/05 09:59:34;;;;;;;9.63;4.68;;;7.00;99.90;;;;;;20842863;28;20029;-80
2021/11/05 10:09:39;;;;;;;6.63;4.40;;;7.00;99.90;;;;;;20851492;28;20107;-80
2021/11/05 10:20:00;;;;;;;6.25;4.47;;;7.00;99.90;;;;;;20838376;28;20040;-80
2021/11/05 10:30:04;;;;;;;6.93;3.90;;;6.90;99.90;;;;;;20766186;28;20092;-81
2021/11/05 10:40:07;;;;;;;9.50;4.30;;;7.00;99.90;;;;;;20765829;28;20036;-82
2021/11/05 10:50:12;;;;;;;5.85;3.28;;;7.20;99.90;;;;;;20758894;28;20032;-83
2021/11/05 11:00:28;;;;;;;5.25;3.63;;;7.60;99.90;;;;;;20770607;28;20038;-79
2021/11/05 11:10:34;;;;;;;5.32;3.22;;;7.60;99.90;;;;;;20761989;28;20129;-80
2021/11/05 11:20:40;;;;;;;9.25;6.28;;;8.20;99.90;;;;;;20778029;28;20025;-80
2021/11/05 11:30:41;;;;;;;4.03;2.38;;;8.70;99.90;;;;;;20763508;28;20036;-80
2021/11/05 11:40:46;;;;;;;3.38;2.45;;;9.10;99.90;;;;;;20751930;28;20029;-80
2021/11/05 11:50:47;;;;;;;7.32;1.80;;;10.10;99.90;;;;;;20744076;28;20038;-80
2021/11/05 12:00:50;;;;;;;2.72;1.55;;;10.10;99.90;;;;;;20755736;28;20026;-80
2021/11/05 12:11:09;;;;;;;1.95;1.17;;;9.90;99.90;;;;;;20753364;28;20038;-80
2021/11/05 12:21:18;;;;;;;1.60;1.38;;;10.40;99.90;;;;;;20739211;28;20184;-80
2021/11/05 12:31:30;;;;;;;4.88;1.30;;;11.30;99.90;;;;;;20812834;28;20041;-79
2021/11/05 12:41:31;;;;;;;;;;;11.10;99.90;;;;;;20801873;28;20168;-78
2021/11/05 12:51:39;;;;;;;4.82;2.55;;;10.40;99.90;;;;;;20832841;28;20012;-79
2021/11/05 13:01:40;;;;;;;4.38;2.75;;;9.50;99.90;;;;;;20837476;28;20041;-80
2021/11/05 13:11:51;;;;;;;3.60;2.60;;;9.30;99.90;;;;;;20853109;28;20039;-79
2021/11/05 13:22:03;;;;;;;1.43;1.10;;;9.10;99.90;;;;;;20806126;28;20550;-80
2021/11/05 13:32:08;;;;;;;;;;;8.90;99.90;;;;;;20808228;28;20518;-81
2021/11/05 13:42:19;;;;;;;1.00;0.80;;;8.50;99.90;;;;;;20806065;28;20008;-82
2021/11/05 13:52:20;;;;;;;1.70;1.17;;;8.10;99.90;;;;;;20814210;28;20722;-83
2021/11/05 14:02:22;;;;;;;0.90;0.87;;;7.90;99.90;;;;;;20796149;28;20041;-80
2021/11/05 14:12:23;;;;;;;2.63;1.10;;;7.70;99.90;;;;;;20801949;28;20065;-81
2021/11/05 14:22:44;;;;;;;3.17;1.20;;;7.60;99.90;;;;;;20796229;28;20033;-77
2021/11/05 14:32:48;;;;;;;1.80;0.90;;;7.90;99.90;;;;;;20804145;28;20029;-79
2021/11/05 14:43:15;;;;;;;4.50;1.20;;;8.30;99.90;;;;;;20806528;28;20117;-79
2021/11/05 14:53:32;;;;;;;2.10;0.88;;;8.70;99.90;;;;;;20821674;28;20033;-79
2021/11/05 15:03:50;;;;;;;15.40;9.20;;;8.80;99.90;;;;;;20833249;28;20052;-80
2021/11/05 15:13:53;;;;;;;1.90;1.33;;;8.40;99.90;;;;;;20818745;28;20033;-79
2021/11/05 15:23:55;;;;;;;2.00;1.33;;;8.80;99.90;;;;;;20821107;28;20052;-80
2021/11/05 15:33:57;;;;;;;4.38;2.25;;;9.70;99.90;;;;;;20836975;28;20021;-80
2021/11/05 15:43:57;;;;;;;8.02;2.30;;;9.50;99.90;;;;;;20871145;28;20033;-77
2021/11/05 15:53:58;;;;;;;2.83;1.67;;;8.60;99.90;;;;;;20857276;28;20404;-78
2021/11/05 16:04:00;;;;;;;4.40;2.17;;;8.10;99.90;;;;;;20825242;28;20037;-76
2021/11/05 16:14:01;;;;;;;;;;;6.90;99.90;;;;;;20794302;28;20095;-79
2021/11/05 16:24:02;;;;;;;123.13;38.10;;;6.60;99.90;;;;;;20811892;28;19921;-80
2021/11/05 16:34:04;;;;;;;309.05;89.68;;;6.50;99.90;;;;;;20801354;28;20049;-81
2021/11/05 16:44:05;;;;;;;44.70;16.48;;;6.10;99.90;;;;;;20758419;28;20033;-79
2021/11/05 16:54:07;;;;;;;17.47;6.27;;;5.80;99.90;;;;;;20789865;28;20069;-79
2021/11/05 17:04:08;;;;;;;18.95;11.27;;;5.70;99.90;;;;;;20770110;28;20033;-80
2021/11/05 17:14:09;;;;;;;25.15;14.10;;;5.70;99.90;;;;;;20767392;28;20045;-80
2021/11/05 17:24:10;;;;;;;17.35;9.25;;;5.30;99.90;;;;;;20781191;28;20041;-80
2021/11/05 17:34:12;;;;;;;13.65;7.35;;;5.20;99.90;;;;;;20764116;28;20029;-81
2021/11/05 17:44:13;;;;;;;28.55;16.70;;;5.30;99.90;;;;;;20770023;28;20181;-80
2021/11/05 17:54:14;;;;;;;13.85;7.30;;;5.20;99.90;;;;;;20762923;28;20022;-81
2021/11/05 18:04:22;;;;;;;119.03;47.03;;;4.80;99.90;;;;;;20788111;28;20025;-80
2021/11/05 18:14:24;;;;;;;105.50;46.97;;;4.70;99.90;;;;;;20779159;28;20526;-78
2021/11/05 18:24:25;;;;;;;32.80;17.05;;;4.70;99.90;;;;;;20775820;28;20041;-79
2021/11/05 18:34:26;;;;;;;;;;;4.50;99.90;;;;;;20759817;28;20496;-79
2021/11/05 18:44:27;;;;;;;27.45;11.52;;;4.50;99.90;;;;;;20782795;28;20342;-81
2021/11/05 18:54:28;;;;;;;7.15;4.53;;;4.50;99.90;;;;;;20756501;28;20045;-80
2021/11/05 19:04:29;;;;;;;5.72;3.58;;;4.70;99.90;;;;;;20755154;28;20424;-78
2021/11/05 19:14:31;;;;;;;6.15;3.92;;;4.80;99.90;;;;;;20771705;28;20041;-79
2021/11/05 19:24:32;;;;;;;8.80;5.40;;;4.80;99.90;;;;;;20785571;28;20037;-78
2021/11/05 19:34:33;;;;;;;8.45;5.35;;;4.70;99.90;;;;;;20817197;28;20037;-78
2021/11/05 19:44:34;;;;;;;9.63;5.30;;;4.80;99.90;;;;;;20841015;28;20033;-78
2021/11/05 19:54:35;;;;;;;;;;;4.80;99.90;;;;;;20836584;28;20079;-77
2021/11/05 20:04:36;;;;;;;7.68;3.90;;;4.80;99.90;;;;;;20818182;28;19921;-79
2021/11/05 20:14:37;;;;;;;4.85;3.17;;;4.50;99.90;;;;;;20807224;28;20132;-78
2021/11/05 20:24:37;;;;;;;5.95;3.22;;;4.60;99.90;;;;;;20826118;28;20041;-79
2021/11/05 20:34:39;;;;;;;5.90;4.10;;;4.40;99.90;;;;;;20837432;28;20970;-79
2021/11/05 20:44:40;;;;;;;;;;;4.30;99.90;;;;;;20832593;28;20041;-80
2021/11/05 20:54:42;;;;;;;4.72;3.40;;;4.30;99.90;;;;;;20824777;28;19925;-77
2021/11/05 21:04:42;;;;;;;5.72;4.10;;;4.40;99.90;;;;;;20813279;28;20123;-79
2021/11/05 21:14:46;;;;;;;7.03;4.10;;;4.50;99.90;;;;;;20850256;28;20069;-79
2021/11/05 21:24:49;;;;;;;8.10;3.78;;;4.40;99.90;;;;;;20836370;28;20041;-79
2021/11/05 21:34:56;;;;;;;6.47;3.65;;;4.20;99.90;;;;;;20832418;28;20041;-78
2021/11/05 21:44:57;;;;;;;9.02;3.50;;;4.00;99.90;;;;;;20837836;28;20029;-79
2021/11/05 21:54:58;;;;;;;5.78;2.60;;;3.80;99.90;;;;;;20841916;28;20068;-79
2021/11/05 22:05:01;;;;;;;5.82;2.67;;;3.30;99.90;;;;;;20827626;28;20034;-80
2021/11/05 22:15:03;;;;;;;4.50;3.10;;;3.30;99.90;;;;;;20844108;28;20076;-78
2021/11/05 22:25:05;;;;;;;5.60;3.20;;;2.70;99.90;;;;;;20827692;28;20045;-80
2021/11/05 22:35:10;;;;;;;4.43;3.08;;;2.70;99.90;;;;;;20847598;28;20060;-79
2021/11/05 22:45:11;;;;;;;7.35;4.18;;;3.10;99.90;;;;;;20845231;28;20037;-80
2021/11/05 22:55:13;;;;;;;3.53;2.58;;;3.00;99.90;;;;;;20829479;28;20041;-80
2021/11/05 23:05:13;;;;;;;4.78;2.90;;;3.10;99.90;;;;;;20864925;28;20463;-80
2021/11/05 23:15:14;;;;;;;;;;;2.90;99.90;;;;;;20882391;28;20105;-82
2021/11/05 23:25:15;;;;;;;91.25;8.82;;;3.00;99.90;;;;;;20917865;28;19913;-80
2021/11/05 23:35:17;;;;;;;5.28;3.50;;;3.00;99.90;;;;;;20926459;28;20114;-81
2021/11/05 23:45:19;;;;;;;6.88;3.70;;;3.10;99.90;;;;;;20926656;28;20048;-80
2021/11/05 23:55:20;;;;;;;8.02;4.55;;;3.30;99.90;;;;;;20943983;28;20102;-81
